sensor_id;sensor_type;location;lat;lon;timestamp;temperature;humidity
65291;SHT30;51893;59.754;10.110;2023-02-28T00:01:33;-0.50;71.54
65291;SHT30;51893;59.754;10.110;2023-02-28T00:04:02;-0.56;71.75
65291;SHT30;51893;59.754;10.110;2023-02-28T00:06:30;-0.56;71.95
65291;SHT30;51893;59.754;10.110;2023-02-28T00:08:57;-0.59;72.02
65291;SHT30;51893;59.754;10.110;2023-02-28T00:11:26;-0.60;72.14
65291;SHT30;51893;59.754;10.110;2023-02-28T00:13:54;-0.59;72.09
65291;SHT30;51893;59.754;10.110;2023-02-28T00:16:22;-0.55;72.11
65291;SHT30;51893;59.754;10.110;2023-02-28T00:18:51;-0.50;72.04
65291;SHT30;51893;59.754;10.110;2023-02-28T00:21:19;-0.43;71.88
65291;SHT30;51893;59.754;10.110;2023-02-28T00:23:48;-0.39;71.77
65291;SHT30;51893;59.754;10.110;2023-02-28T00:26:16;-0.35;71.66
65291;SHT30;51893;59.754;10.110;2023-02-28T00:28:47;-0.32;71.55
65291;SHT30;51893;59.754;10.110;2023-02-28T00:31:15;-0.37;71.52
65291;SHT30;51893;59.754;10.110;2023-02-28T00:33:43;-0.51;71.86
65291;SHT30;51893;59.754;10.110;2023-02-28T00:36:11;-0.61;72.19
65291;SHT30;51893;59.754;10.110;2023-02-28T00:38:39;-0.73;72.30
65291;SHT30;51893;59.754;10.110;2023-02-28T00:41:08;-0.88;72.37
65291;SHT30;51893;59.754;10.110;2023-02-28T00:43:37;-0.97;72.54
65291;SHT30;51893;59.754;10.110;2023-02-28T00:46:06;-0.97;72.57
65291;SHT30;51893;59.754;10.110;2023-02-28T00:48:36;-1.01;72.35
65291;SHT30;51893;59.754;10.110;2023-02-28T00:51:04;-1.09;72.37
65291;SHT30;51893;59.754;10.110;2023-02-28T00:53:33;-1.19;72.29
65291;SHT30;51893;59.754;10.110;2023-02-28T00:56:02;-1.26;72.30
65291;SHT30;51893;59.754;10.110;2023-02-28T00:58:31;-1.31;72.47
65291;SHT30;51893;59.754;10.110;2023-02-28T01:00:59;-1.34;72.86
65291;SHT30;51893;59.754;10.110;2023-02-28T01:03:27;-1.30;73.00
65291;SHT30;51893;59.754;10.110;2023-02-28T01:05:55;-1.24;72.99
65291;SHT30;51893;59.754;10.110;2023-02-28T01:08:24;-1.15;72.84
65291;SHT30;51893;59.754;10.110;2023-02-28T01:10:53;-1.07;72.73
65291;SHT30;51893;59.754;10.110;2023-02-28T01:13:21;-1.03;72.61
65291;SHT30;51893;59.754;10.110;2023-02-28T01:15:51;-1.00;72.75
65291;SHT30;51893;59.754;10.110;2023-02-28T01:18:25;-0.96;72.85
65291;SHT30;51893;59.754;10.110;2023-02-28T01:20:53;-1.00;72.95
65291;SHT30;51893;59.754;10.110;2023-02-28T01:23:23;-1.04;73.16
65291;SHT30;51893;59.754;10.110;2023-02-28T01:25:52;-1.11;73.33
65291;SHT30;51893;59.754;10.110;2023-02-28T01:28:19;-1.19;73.39
65291;SHT30;51893;59.754;10.110;2023-02-28T01:30:49;-1.32;73.37
65291;SHT30;51893;59.754;10.110;2023-02-28T01:33:19;-1.37;73.56
65291;SHT30;51893;59.754;10.110;2023-02-28T01:35:47;-1.37;73.74
65291;SHT30;51893;59.754;10.110;2023-02-28T01:38:17;-1.36;73.71
65291;SHT30;51893;59.754;10.110;2023-02-28T01:40:50;-1.38;73.82
65291;SHT30;51893;59.754;10.110;2023-02-28T01:43:20;-1.39;73.99
65291;SHT30;51893;59.754;10.110;2023-02-28T01:45:59;-1.39;73.64
65291;SHT30;51893;59.754;10.110;2023-02-28T01:48:28;-1.47;73.24
65291;SHT30;51893;59.754;10.110;2023-02-28T01:51:03;-1.50;73.11
65291;SHT30;51893;59.754;10.110;2023-02-28T01:53:41;-1.54;73.11
65291;SHT30;51893;59.754;10.110;2023-02-28T01:56:17;-1.51;73.12
65291;SHT30;51893;59.754;10.110;2023-02-28T01:58:51;-1.49;73.08
65291;SHT30;51893;59.754;10.110;2023-02-28T02:01:21;-1.51;73.01
65291;SHT30;51893;59.754;10.110;2023-02-28T02:03:54;-1.64;73.01
65291;SHT30;51893;59.754;10.110;2023-02-28T02:06:30;-1.64;73.01
65291;SHT30;51893;59.754;10.110;2023-02-28T02:09:11;-1.71;73.36
65291;SHT30;51893;59.754;10.110;2023-02-28T02:11:43;-1.62;73.48
65291;SHT30;51893;59.754;10.110;2023-02-28T02:17:37;-1.56;73.46
65291;SHT30;51893;59.754;10.110;2023-02-28T02:29:47;-1.62;73.42
65291;SHT30;51893;59.754;10.110;2023-02-28T02:40:50;-1.40;73.45
65291;SHT30;51893;59.754;10.110;2023-02-28T02:44:13;-1.35;73.39
65291;SHT30;51893;59.754;10.110;2023-02-28T02:47:02;-1.30;73.40
65291;SHT30;51893;59.754;10.110;2023-02-28T02:49:46;-1.33;73.46
65291;SHT30;51893;59.754;10.110;2023-02-28T02:52:21;-1.31;73.71
65291;SHT30;51893;59.754;10.110;2023-02-28T02:54:57;-1.28;73.76
65291;SHT30;51893;59.754;10.110;2023-02-28T02:57:30;-1.30;73.74
65291;SHT30;51893;59.754;10.110;2023-02-28T03:00:16;-1.30;73.63
65291;SHT30;51893;59.754;10.110;2023-02-28T03:02:50;-1.25;73.44
65291;SHT30;51893;59.754;10.110;2023-02-28T03:05:25;-1.17;73.26
65291;SHT30;51893;59.754;10.110;2023-02-28T03:08:03;-1.17;73.55
65291;SHT30;51893;59.754;10.110;2023-02-28T03:10:34;-1.22;73.85
65291;SHT30;51893;59.754;10.110;2023-02-28T03:28:53;-1.22;73.17
65291;SHT30;51893;59.754;10.110;2023-02-28T03:35:03;-1.08;72.87
65291;SHT30;51893;59.754;10.110;2023-02-28T03:37:40;-1.00;72.51
65291;SHT30;51893;59.754;10.110;2023-02-28T03:40:31;-0.92;72.27
65291;SHT30;51893;59.754;10.110;2023-02-28T03:43:03;-0.84;72.13
65291;SHT30;51893;59.754;10.110;2023-02-28T03:45:42;-0.81;71.85
65291;SHT30;51893;59.754;10.110;2023-02-28T03:50:53;-0.81;71.31
65291;SHT30;51893;59.754;10.110;2023-02-28T03:53:35;-0.81;71.30
65291;SHT30;51893;59.754;10.110;2023-02-28T03:59:26;-0.88;71.45
65291;SHT30;51893;59.754;10.110;2023-02-28T04:02:06;-0.97;71.84
65291;SHT30;51893;59.754;10.110;2023-02-28T04:04:36;-1.02;71.93
65291;SHT30;51893;59.754;10.110;2023-02-28T04:07:05;-1.14;72.10
65291;SHT30;51893;59.754;10.110;2023-02-28T04:09:36;-1.32;72.47
65291;SHT30;51893;59.754;10.110;2023-02-28T04:12:04;-1.48;72.83
65291;SHT30;51893;59.754;10.110;2023-02-28T04:14:32;-1.55;72.98
65291;SHT30;51893;59.754;10.110;2023-02-28T04:17:00;-1.60;73.17
65291;SHT30;51893;59.754;10.110;2023-02-28T04:19:29;-1.55;73.17
65291;SHT30;51893;59.754;10.110;2023-02-28T04:21:57;-1.49;73.04
65291;SHT30;51893;59.754;10.110;2023-02-28T04:24:26;-1.49;72.83
65291;SHT30;51893;59.754;10.110;2023-02-28T04:26:55;-1.63;72.94
65291;SHT30;51893;59.754;10.110;2023-02-28T04:29:30;-1.77;73.34
65291;SHT30;51893;59.754;10.110;2023-02-28T04:32:02;-1.83;73.89
65291;SHT30;51893;59.754;10.110;2023-02-28T04:34:31;-1.88;73.87
65291;SHT30;51893;59.754;10.110;2023-02-28T04:37:00;-1.83;73.65
65291;SHT30;51893;59.754;10.110;2023-02-28T04:39:40;-1.82;73.42
65291;SHT30;51893;59.754;10.110;2023-02-28T04:42:10;-1.83;73.34
65291;SHT30;51893;59.754;10.110;2023-02-28T04:44:40;-1.87;73.65
65291;SHT30;51893;59.754;10.110;2023-02-28T04:47:08;-1.88;73.70
65291;SHT30;51893;59.754;10.110;2023-02-28T04:49:37;-1.93;73.60
65291;SHT30;51893;59.754;10.110;2023-02-28T04:52:05;-2.01;73.72
65291;SHT30;51893;59.754;10.110;2023-02-28T04:54:34;-2.03;73.81
65291;SHT30;51893;59.754;10.110;2023-02-28T04:57:02;-1.99;73.78
65291;SHT30;51893;59.754;10.110;2023-02-28T04:59:31;-1.97;73.62
65291;SHT30;51893;59.754;10.110;2023-02-28T05:02:00;-2.00;73.82
65291;SHT30;51893;59.754;10.110;2023-02-28T05:04:34;-1.99;73.72
65291;SHT30;51893;59.754;10.110;2023-02-28T05:07:04;-1.98;73.58
65291;SHT30;51893;59.754;10.110;2023-02-28T05:09:32;-2.01;73.50
65291;SHT30;51893;59.754;10.110;2023-02-28T05:12:03;-2.06;73.48
65291;SHT30;51893;59.754;10.110;2023-02-28T05:14:31;-2.12;73.55
65291;SHT30;51893;59.754;10.110;2023-02-28T05:16:59;-2.12;73.56
65291;SHT30;51893;59.754;10.110;2023-02-28T05:19:27;-2.08;73.46
65291;SHT30;51893;59.754;10.110;2023-02-28T05:21:55;-2.08;73.30
65291;SHT30;51893;59.754;10.110;2023-02-28T05:24:23;-2.12;73.18
65291;SHT30;51893;59.754;10.110;2023-02-28T05:26:53;-2.13;73.08
65291;SHT30;51893;59.754;10.110;2023-02-28T05:29:22;-2.20;73.02
65291;SHT30;51893;59.754;10.110;2023-02-28T05:31:50;-2.23;73.09
65291;SHT30;51893;59.754;10.110;2023-02-28T05:34:18;-2.22;73.18
65291;SHT30;51893;59.754;10.110;2023-02-28T05:36:47;-2.26;72.97
65291;SHT30;51893;59.754;10.110;2023-02-28T05:39:15;-2.38;73.26
65291;SHT30;51893;59.754;10.110;2023-02-28T05:41:43;-2.42;73.39
65291;SHT30;51893;59.754;10.110;2023-02-28T05:44:14;-2.45;73.64
65291;SHT30;51893;59.754;10.110;2023-02-28T05:46:43;-2.45;73.95
65291;SHT30;51893;59.754;10.110;2023-02-28T05:49:11;-2.46;73.64
65291;SHT30;51893;59.754;10.110;2023-02-28T05:51:40;-2.51;73.72
65291;SHT30;51893;59.754;10.110;2023-02-28T05:54:08;-2.52;74.19
65291;SHT30;51893;59.754;10.110;2023-02-28T05:56:37;-2.53;74.37
65291;SHT30;51893;59.754;10.110;2023-02-28T05:59:07;-2.52;74.33
65291;SHT30;51893;59.754;10.110;2023-02-28T06:01:36;-2.53;74.25
65291;SHT30;51893;59.754;10.110;2023-02-28T06:04:16;-2.47;74.32
65291;SHT30;51893;59.754;10.110;2023-02-28T06:07:00;-2.47;74.13
65291;SHT30;51893;59.754;10.110;2023-02-28T06:09:29;-2.53;74.92
65291;SHT30;51893;59.754;10.110;2023-02-28T06:11:58;-2.57;75.31
65291;SHT30;51893;59.754;10.110;2023-02-28T06:14:27;-2.58;75.03
65291;SHT30;51893;59.754;10.110;2023-02-28T06:16:55;-2.63;75.17
65291;SHT30;51893;59.754;10.110;2023-02-28T06:19:26;-2.67;75.40
65291;SHT30;51893;59.754;10.110;2023-02-28T06:21:54;-2.69;75.50
65291;SHT30;51893;59.754;10.110;2023-02-28T06:24:24;-2.80;75.46
65291;SHT30;51893;59.754;10.110;2023-02-28T06:26:55;-2.93;75.61
65291;SHT30;51893;59.754;10.110;2023-02-28T06:29:26;-2.91;75.76
65291;SHT30;51893;59.754;10.110;2023-02-28T06:31:54;-2.90;75.63
65291;SHT30;51893;59.754;10.110;2023-02-28T06:34:24;-2.89;75.36
65291;SHT30;51893;59.754;10.110;2023-02-28T06:36:52;-2.84;74.90
65291;SHT30;51893;59.754;10.110;2023-02-28T06:39:20;-2.92;74.61
65291;SHT30;51893;59.754;10.110;2023-02-28T06:41:49;-2.88;74.51
65291;SHT30;51893;59.754;10.110;2023-02-28T06:44:23;-2.84;74.23
65291;SHT30;51893;59.754;10.110;2023-02-28T06:46:51;-2.81;74.12
65291;SHT30;51893;59.754;10.110;2023-02-28T06:49:19;-2.78;73.92
65291;SHT30;51893;59.754;10.110;2023-02-28T06:51:48;-2.76;74.16
65291;SHT30;51893;59.754;10.110;2023-02-28T06:54:15;-2.72;74.43
65291;SHT30;51893;59.754;10.110;2023-02-28T06:56:43;-2.75;74.46
65291;SHT30;51893;59.754;10.110;2023-02-28T06:59:11;-2.75;74.49
65291;SHT30;51893;59.754;10.110;2023-02-28T07:01:39;-2.71;74.62
65291;SHT30;51893;59.754;10.110;2023-02-28T07:04:08;-2.72;74.86
65291;SHT30;51893;59.754;10.110;2023-02-28T07:06:36;-2.65;74.91
65291;SHT30;51893;59.754;10.110;2023-02-28T07:09:04;-2.56;74.80
65291;SHT30;51893;59.754;10.110;2023-02-28T07:11:33;-2.47;74.55
65291;SHT30;51893;59.754;10.110;2023-02-28T07:14:00;-2.40;74.44
65291;SHT30;51893;59.754;10.110;2023-02-28T07:16:28;-2.30;74.20
65291;SHT30;51893;59.754;10.110;2023-02-28T07:18:56;-2.33;74.28
65291;SHT30;51893;59.754;10.110;2023-02-28T07:21:24;-2.34;74.43
65291;SHT30;51893;59.754;10.110;2023-02-28T07:23:52;-2.22;74.15
65291;SHT30;51893;59.754;10.110;2023-02-28T07:26:20;-2.15;73.67
65291;SHT30;51893;59.754;10.110;2023-02-28T07:28:49;-2.21;73.61
65291;SHT30;51893;59.754;10.110;2023-02-28T07:31:17;-2.22;73.87
65291;SHT30;51893;59.754;10.110;2023-02-28T07:33:47;-2.17;73.94
65291;SHT30;51893;59.754;10.110;2023-02-28T07:36:16;-2.22;74.20
65291;SHT30;51893;59.754;10.110;2023-02-28T07:38:48;-2.26;74.19
65291;SHT30;51893;59.754;10.110;2023-02-28T07:41:18;-2.30;74.13
65291;SHT30;51893;59.754;10.110;2023-02-28T07:43:49;-2.28;74.19
65291;SHT30;51893;59.754;10.110;2023-02-28T07:46:17;-2.27;74.19
65291;SHT30;51893;59.754;10.110;2023-02-28T07:48:45;-2.22;74.05
65291;SHT30;51893;59.754;10.110;2023-02-28T07:51:13;-2.20;74.12
65291;SHT30;51893;59.754;10.110;2023-02-28T07:53:41;-2.09;74.14
65291;SHT30;51893;59.754;10.110;2023-02-28T07:56:10;-2.02;74.01
65291;SHT30;51893;59.754;10.110;2023-02-28T07:58:38;-1.98;74.02
65291;SHT30;51893;59.754;10.110;2023-02-28T08:01:14;-1.99;74.37
65291;SHT30;51893;59.754;10.110;2023-02-28T08:03:49;-2.00;74.60
65291;SHT30;51893;59.754;10.110;2023-02-28T08:06:20;-2.00;74.52
65291;SHT30;51893;59.754;10.110;2023-02-28T08:08:52;-1.97;74.25
65291;SHT30;51893;59.754;10.110;2023-02-28T08:11:22;-1.99;73.99
65291;SHT30;51893;59.754;10.110;2023-02-28T08:13:49;-1.98;73.87
65291;SHT30;51893;59.754;10.110;2023-02-28T08:16:18;-1.93;73.89
65291;SHT30;51893;59.754;10.110;2023-02-28T08:18:50;-1.79;73.76
65291;SHT30;51893;59.754;10.110;2023-02-28T08:21:20;-1.64;73.48
65291;SHT30;51893;59.754;10.110;2023-02-28T08:23:49;-1.55;73.08
65291;SHT30;51893;59.754;10.110;2023-02-28T08:26:18;-1.51;72.87
65291;SHT30;51893;59.754;10.110;2023-02-28T08:28:48;-1.48;72.76
65291;SHT30;51893;59.754;10.110;2023-02-28T08:31:16;-1.46;72.68
65291;SHT30;51893;59.754;10.110;2023-02-28T08:33:45;-1.47;72.46
65291;SHT30;51893;59.754;10.110;2023-02-28T08:36:17;-1.56;72.23
65291;SHT30;51893;59.754;10.110;2023-02-28T08:38:46;-1.73;72.34
65291;SHT30;51893;59.754;10.110;2023-02-28T08:41:13;-1.69;72.70
65291;SHT30;51893;59.754;10.110;2023-02-28T08:43:42;-1.70;72.63
65291;SHT30;51893;59.754;10.110;2023-02-28T08:46:11;-1.67;72.56
65291;SHT30;51893;59.754;10.110;2023-02-28T08:48:42;-1.69;72.55
65291;SHT30;51893;59.754;10.110;2023-02-28T08:51:15;-1.66;72.68
65291;SHT30;51893;59.754;10.110;2023-02-28T08:53:49;-1.52;72.62
65291;SHT30;51893;59.754;10.110;2023-02-28T08:56:17;-1.44;72.43
65291;SHT30;51893;59.754;10.110;2023-02-28T08:58:47;-1.29;72.39
65291;SHT30;51893;59.754;10.110;2023-02-28T09:01:21;-1.16;72.33
65291;SHT30;51893;59.754;10.110;2023-02-28T09:03:55;-0.98;72.14
65291;SHT30;51893;59.754;10.110;2023-02-28T09:06:26;-0.91;71.86
65291;SHT30;51893;59.754;10.110;2023-02-28T09:08:58;-0.90;71.77
65291;SHT30;51893;59.754;10.110;2023-02-28T09:11:29;-1.02;71.70
65291;SHT30;51893;59.754;10.110;2023-02-28T09:13:57;-1.04;71.96
65291;SHT30;51893;59.754;10.110;2023-02-28T09:16:29;-0.99;71.90
65291;SHT30;51893;59.754;10.110;2023-02-28T09:19:02;-0.89;71.89
65291;SHT30;51893;59.754;10.110;2023-02-28T09:21:30;-0.75;71.86
65291;SHT30;51893;59.754;10.110;2023-02-28T09:23:58;-0.63;71.66
65291;SHT30;51893;59.754;10.110;2023-02-28T09:26:27;-0.48;71.40
65291;SHT30;51893;59.754;10.110;2023-02-28T09:29:09;-0.44;71.20
65291;SHT30;51893;59.754;10.110;2023-02-28T09:31:38;-0.37;71.19
65291;SHT30;51893;59.754;10.110;2023-02-28T09:34:08;-0.21;71.19
65291;SHT30;51893;59.754;10.110;2023-02-28T09:36:37;-0.08;70.89
65291;SHT30;51893;59.754;10.110;2023-02-28T09:39:11;0.01;70.58
65291;SHT30;51893;59.754;10.110;2023-02-28T09:41:44;-0.00;70.22
65291;SHT30;51893;59.754;10.110;2023-02-28T09:44:37;-0.02;70.18
65291;SHT30;51893;59.754;10.110;2023-02-28T09:49:59;-0.05;70.01
65291;SHT30;51893;59.754;10.110;2023-02-28T09:52:45;-0.03;69.77
65291;SHT30;51893;59.754;10.110;2023-02-28T09:55:28;0.05;69.84
65291;SHT30;51893;59.754;10.110;2023-02-28T09:58:49;0.24;69.90
65291;SHT30;51893;59.754;10.110;2023-02-28T10:04:50;0.57;69.50
65291;SHT30;51893;59.754;10.110;2023-02-28T10:10:18;1.02;69.31
65291;SHT30;51893;59.754;10.110;2023-02-28T10:12:58;1.30;69.38
65291;SHT30;51893;59.754;10.110;2023-02-28T10:15:33;1.52;68.81
65291;SHT30;51893;59.754;10.110;2023-02-28T10:18:04;1.58;67.42
65291;SHT30;51893;59.754;10.110;2023-02-28T10:20:40;1.53;67.53
65291;SHT30;51893;59.754;10.110;2023-02-28T10:23:21;1.53;67.04
65291;SHT30;51893;59.754;10.110;2023-02-28T10:26:00;1.61;67.45
65291;SHT30;51893;59.754;10.110;2023-02-28T10:28:38;1.81;67.65
65291;SHT30;51893;59.754;10.110;2023-02-28T10:31:10;2.03;67.39
65291;SHT30;51893;59.754;10.110;2023-02-28T10:33:46;2.27;67.10
65291;SHT30;51893;59.754;10.110;2023-02-28T10:36:16;2.46;66.80
65291;SHT30;51893;59.754;10.110;2023-02-28T10:38:47;2.63;66.06
65291;SHT30;51893;59.754;10.110;2023-02-28T10:41:28;2.63;65.68
65291;SHT30;51893;59.754;10.110;2023-02-28T10:44:15;2.66;64.99
65291;SHT30;51893;59.754;10.110;2023-02-28T10:46:48;2.63;64.70
65291;SHT30;51893;59.754;10.110;2023-02-28T10:49:25;2.51;64.22
65291;SHT30;51893;59.754;10.110;2023-02-28T10:51:59;2.46;64.56
65291;SHT30;51893;59.754;10.110;2023-02-28T10:54:32;2.43;64.70
65291;SHT30;51893;59.754;10.110;2023-02-28T11:00:05;2.52;64.25
65291;SHT30;51893;59.754;10.110;2023-02-28T11:02:45;2.50;63.96
65291;SHT30;51893;59.754;10.110;2023-02-28T11:05:30;2.51;63.67
65291;SHT30;51893;59.754;10.110;2023-02-28T11:08:12;2.61;64.20
65291;SHT30;51893;59.754;10.110;2023-02-28T11:10:47;2.84;64.35
65291;SHT30;51893;59.754;10.110;2023-02-28T11:13:26;3.00;64.17
65291;SHT30;51893;59.754;10.110;2023-02-28T11:16:06;3.22;64.19
65291;SHT30;51893;59.754;10.110;2023-02-28T11:18:49;3.52;63.90
65291;SHT30;51893;59.754;10.110;2023-02-28T11:21:36;3.72;63.11
65291;SHT30;51893;59.754;10.110;2023-02-28T11:24:24;3.90;62.87
65291;SHT30;51893;59.754;10.110;2023-02-28T11:27:04;4.13;61.99
65291;SHT30;51893;59.754;10.110;2023-02-28T11:29:33;4.25;61.08
65291;SHT30;51893;59.754;10.110;2023-02-28T11:32:05;4.50;61.59
65291;SHT30;51893;59.754;10.110;2023-02-28T11:35:01;4.70;60.39
65291;SHT30;51893;59.754;10.110;2023-02-28T11:37:38;4.86;59.45
65291;SHT30;51893;59.754;10.110;2023-02-28T11:40:30;4.99;59.79
65291;SHT30;51893;59.754;10.110;2023-02-28T11:46:39;5.11;59.06
65291;SHT30;51893;59.754;10.110;2023-02-28T11:55:35;5.48;58.48
65291;SHT30;51893;59.754;10.110;2023-02-28T11:58:31;5.65;58.45
65291;SHT30;51893;59.754;10.110;2023-02-28T12:01:32;5.77;58.00
65291;SHT30;51893;59.754;10.110;2023-02-28T12:04:25;6.12;57.67
65291;SHT30;51893;59.754;10.110;2023-02-28T12:11:06;6.41;56.20
65291;SHT30;51893;59.754;10.110;2023-02-28T12:24:55;6.64;54.27
65291;SHT30;51893;59.754;10.110;2023-02-28T12:27:41;6.44;54.16
65291;SHT30;51893;59.754;10.110;2023-02-28T12:32:56;6.39;54.56
65291;SHT30;51893;59.754;10.110;2023-02-28T12:35:37;6.38;54.22
65291;SHT30;51893;59.754;10.110;2023-02-28T12:38:19;6.32;54.27
65291;SHT30;51893;59.754;10.110;2023-02-28T12:41:36;6.41;55.19
65291;SHT30;51893;59.754;10.110;2023-02-28T12:44:12;6.63;55.57
65291;SHT30;51893;59.754;10.110;2023-02-28T12:46:50;6.91;55.36
65291;SHT30;51893;59.754;10.110;2023-02-28T12:49:22;7.13;55.38
65291;SHT30;51893;59.754;10.110;2023-02-28T12:52:00;7.32;55.37
65291;SHT30;51893;59.754;10.110;2023-02-28T12:55:07;7.33;54.30
65291;SHT30;51893;59.754;10.110;2023-02-28T13:01:06;7.80;53.29
65291;SHT30;51893;59.754;10.110;2023-02-28T13:09:59;7.75;53.45
65291;SHT30;51893;59.754;10.110;2023-02-28T13:12:31;7.55;52.67
65291;SHT30;51893;59.754;10.110;2023-02-28T13:15:07;7.38;52.87
65291;SHT30;51893;59.754;10.110;2023-02-28T13:17:56;7.18;53.15
65291;SHT30;51893;59.754;10.110;2023-02-28T13:20:29;6.92;53.03
65291;SHT30;51893;59.754;10.110;2023-02-28T13:32:30;6.16;53.89
65291;SHT30;51893;59.754;10.110;2023-02-28T13:39:48;5.87;54.78
65291;SHT30;51893;59.754;10.110;2023-02-28T13:47:40;5.82;55.20
65291;SHT30;51893;59.754;10.110;2023-02-28T13:55:57;5.65;55.08
65291;SHT30;51893;59.754;10.110;2023-02-28T13:58:41;5.60;55.24
65291;SHT30;51893;59.754;10.110;2023-02-28T14:01:47;5.58;55.48
65291;SHT30;51893;59.754;10.110;2023-02-28T14:04:59;5.59;55.62
65291;SHT30;51893;59.754;10.110;2023-02-28T14:07:32;5.58;55.49
65291;SHT30;51893;59.754;10.110;2023-02-28T14:10:16;5.58;55.54
65291;SHT30;51893;59.754;10.110;2023-02-28T14:13:02;5.60;55.29
65291;SHT30;51893;59.754;10.110;2023-02-28T14:15:46;5.61;55.60
65291;SHT30;51893;59.754;10.110;2023-02-28T14:18:26;5.61;55.99
65291;SHT30;51893;59.754;10.110;2023-02-28T14:23:46;5.65;56.21
65291;SHT30;51893;59.754;10.110;2023-02-28T14:35:39;5.63;56.98
65291;SHT30;51893;59.754;10.110;2023-02-28T14:38:33;5.65;56.37
65291;SHT30;51893;59.754;10.110;2023-02-28T14:41:18;5.67;55.93
65291;SHT30;51893;59.754;10.110;2023-02-28T14:43:59;5.64;55.63
65291;SHT30;51893;59.754;10.110;2023-02-28T14:46:37;5.62;55.90
65291;SHT30;51893;59.754;10.110;2023-02-28T14:49:19;5.58;55.91
65291;SHT30;51893;59.754;10.110;2023-02-28T14:52:12;5.57;55.96
65291;SHT30;51893;59.754;10.110;2023-02-28T14:54:46;5.59;56.41
65291;SHT30;51893;59.754;10.110;2023-02-28T14:57:24;5.62;56.27
65291;SHT30;51893;59.754;10.110;2023-02-28T15:02:54;5.64;56.51
65291;SHT30;51893;59.754;10.110;2023-02-28T15:05:30;5.61;57.03
65291;SHT30;51893;59.754;10.110;2023-02-28T15:08:04;5.57;57.72
65291;SHT30;51893;59.754;10.110;2023-02-28T15:10:51;5.52;57.63
65291;SHT30;51893;59.754;10.110;2023-02-28T15:16:22;5.52;57.94
65291;SHT30;51893;59.754;10.110;2023-02-28T15:19:23;5.50;58.50
65291;SHT30;51893;59.754;10.110;2023-02-28T15:22:04;5.46;58.80
65291;SHT30;51893;59.754;10.110;2023-02-28T15:24:45;5.47;59.26
65291;SHT30;51893;59.754;10.110;2023-02-28T15:27:29;5.46;59.02
65291;SHT30;51893;59.754;10.110;2023-02-28T15:30:04;5.46;58.61
65291;SHT30;51893;59.754;10.110;2023-02-28T15:32:37;5.43;58.97
65291;SHT30;51893;59.754;10.110;2023-02-28T15:37:54;5.34;60.00
65291;SHT30;51893;59.754;10.110;2023-02-28T15:40:26;5.30;59.92
65291;SHT30;51893;59.754;10.110;2023-02-28T15:43:15;5.25;59.47
65291;SHT30;51893;59.754;10.110;2023-02-28T15:45:48;5.14;59.74
65291;SHT30;51893;59.754;10.110;2023-02-28T15:48:55;5.01;60.23
65291;SHT30;51893;59.754;10.110;2023-02-28T15:51:32;4.92;60.46
65291;SHT30;51893;59.754;10.110;2023-02-28T15:54:08;4.89;60.82
65291;SHT30;51893;59.754;10.110;2023-02-28T15:56:46;4.89;60.97
65291;SHT30;51893;59.754;10.110;2023-02-28T15:59:29;4.76;61.22
65291;SHT30;51893;59.754;10.110;2023-02-28T16:04:37;4.62;61.58
65291;SHT30;51893;59.754;10.110;2023-02-28T16:07:37;4.59;61.49
65291;SHT30;51893;59.754;10.110;2023-02-28T16:10:11;4.42;61.76
65291;SHT30;51893;59.754;10.110;2023-02-28T16:12:44;4.34;61.94
65291;SHT30;51893;59.754;10.110;2023-02-28T16:15:25;4.32;61.86
65291;SHT30;51893;59.754;10.110;2023-02-28T16:18:02;4.28;61.78
65291;SHT30;51893;59.754;10.110;2023-02-28T16:20:32;4.28;61.71
65291;SHT30;51893;59.754;10.110;2023-02-28T16:23:00;4.23;61.64
65291;SHT30;51893;59.754;10.110;2023-02-28T16:25:35;4.19;61.81
65291;SHT30;51893;59.754;10.110;2023-02-28T16:28:12;4.15;61.70
65291;SHT30;51893;59.754;10.110;2023-02-28T16:30:47;4.07;61.69
65291;SHT30;51893;59.754;10.110;2023-02-28T16:33:27;3.82;62.56
65291;SHT30;51893;59.754;10.110;2023-02-28T16:35:56;3.59;63.36
65291;SHT30;51893;59.754;10.110;2023-02-28T16:38:24;3.49;63.60
65291;SHT30;51893;59.754;10.110;2023-02-28T16:40:55;3.39;63.77
65291;SHT30;51893;59.754;10.110;2023-02-28T16:43:27;3.42;63.66
65291;SHT30;51893;59.754;10.110;2023-02-28T16:46:04;3.44;63.34
65291;SHT30;51893;59.754;10.110;2023-02-28T16:48:34;3.40;63.47
65291;SHT30;51893;59.754;10.110;2023-02-28T16:51:04;3.33;63.95
65291;SHT30;51893;59.754;10.110;2023-02-28T16:53:32;3.31;64.00
65291;SHT30;51893;59.754;10.110;2023-02-28T16:56:04;3.28;64.24
65291;SHT30;51893;59.754;10.110;2023-02-28T16:58:34;3.21;64.42
65291;SHT30;51893;59.754;10.110;2023-02-28T17:01:03;3.08;64.93
65291;SHT30;51893;59.754;10.110;2023-02-28T17:03:33;3.03;64.99
65291;SHT30;51893;59.754;10.110;2023-02-28T17:06:02;2.95;65.08
65291;SHT30;51893;59.754;10.110;2023-02-28T17:08:32;2.89;65.19
65291;SHT30;51893;59.754;10.110;2023-02-28T17:11:10;2.77;65.24
65291;SHT30;51893;59.754;10.110;2023-02-28T17:13:38;2.66;65.69
65291;SHT30;51893;59.754;10.110;2023-02-28T17:16:08;2.46;66.44
65291;SHT30;51893;59.754;10.110;2023-02-28T17:18:59;2.28;66.89
65291;SHT30;51893;59.754;10.110;2023-02-28T17:21:31;2.18;67.19
65291;SHT30;51893;59.754;10.110;2023-02-28T17:24:00;2.13;67.04
65291;SHT30;51893;59.754;10.110;2023-02-28T17:26:28;2.15;67.05
65291;SHT30;51893;59.754;10.110;2023-02-28T17:28:57;2.14;66.79
65291;SHT30;51893;59.754;10.110;2023-02-28T17:31:29;2.07;66.87
65291;SHT30;51893;59.754;10.110;2023-02-28T17:34:01;2.12;66.69
65291;SHT30;51893;59.754;10.110;2023-02-28T17:36:30;2.12;66.83
65291;SHT30;51893;59.754;10.110;2023-02-28T17:39:02;2.13;66.89
65291;SHT30;51893;59.754;10.110;2023-02-28T17:41:41;2.11;66.80
65291;SHT30;51893;59.754;10.110;2023-02-28T17:44:09;2.00;66.85
65291;SHT30;51893;59.754;10.110;2023-02-28T17:46:38;1.97;67.03
65291;SHT30;51893;59.754;10.110;2023-02-28T17:49:08;2.01;67.08
65291;SHT30;51893;59.754;10.110;2023-02-28T17:51:36;2.04;67.11
65291;SHT30;51893;59.754;10.110;2023-02-28T17:54:04;2.02;67.25
65291;SHT30;51893;59.754;10.110;2023-02-28T17:56:34;1.88;67.53
65291;SHT30;51893;59.754;10.110;2023-02-28T17:59:02;1.65;68.44
65291;SHT30;51893;59.754;10.110;2023-02-28T18:01:30;1.46;68.96
65291;SHT30;51893;59.754;10.110;2023-02-28T18:03:58;1.34;68.85
65291;SHT30;51893;59.754;10.110;2023-02-28T18:06:37;1.33;68.96
65291;SHT30;51893;59.754;10.110;2023-02-28T18:09:18;1.37;68.87
65291;SHT30;51893;59.754;10.110;2023-02-28T18:11:50;1.44;68.82
65291;SHT30;51893;59.754;10.110;2023-02-28T18:14:23;1.49;69.20
65291;SHT30;51893;59.754;10.110;2023-02-28T18:16:54;1.45;69.67
65291;SHT30;51893;59.754;10.110;2023-02-28T18:19:24;1.32;70.58
65291;SHT30;51893;59.754;10.110;2023-02-28T18:21:52;1.26;71.02
65291;SHT30;51893;59.754;10.110;2023-02-28T18:24:23;1.12;71.29
65291;SHT30;51893;59.754;10.110;2023-02-28T18:26:52;1.09;71.41
65291;SHT30;51893;59.754;10.110;2023-02-28T18:29:24;1.04;71.30